sensor_id;sensor_type;location;lat;lon;timestamp;P1;durP1;ratioP1;P2;durP2;ratioP2
75516;SDS011;64097;52.548;13.406;2023-07-20T06:02:33;4.22;;;3.92;;
75516;SDS011;64097;52.548;13.406;2023-07-20T06:04:59;3.40;;;3.20;;
75516;SDS011;64097;52.548;13.406;2023-07-20T06:07:24;4.07;;;3.28;;
75516;SDS011;64097;52.548;13.406;2023-07-20T06:09:50;3.60;;;3.30;;
75516;SDS011;64097;52.548;13.406;2023-07-20T06:12:16;3.03;;;2.83;;
75516;SDS011;64097;52.548;13.406;2023-07-20T06:14:41;3.72;;;3.35;;
75516;SDS011;64097;52.548;13.406;2023-07-20T06:17:07;3.60;;;3.30;;
75516;SDS011;64097;52.548;13.406;2023-07-20T06:19:33;2.58;;;2.38;;
75516;SDS011;64097;52.548;13.406;2023-07-20T06:21:59;2.80;;;2.53;;
75516;SDS011;64097;52.548;13.406;2023-07-20T06:24:24;3.70;;;3.10;;
75516;SDS011;64097;52.548;13.406;2023-07-20T06:26:50;2.67;;;2.47;;
75516;SDS011;64097;52.548;13.406;2023-07-20T06:29:16;2.47;;;2.28;;
75516;SDS011;64097;52.548;13.406;2023-07-20T06:31:41;2.40;;;2.20;;
75516;SDS011;64097;52.548;13.406;2023-07-20T06:34:07;2.70;;;2.50;;
75516;SDS011;64097;52.548;13.406;2023-07-20T06:36:33;2.50;;;2.30;;
75516;SDS011;64097;52.548;13.406;2023-07-20T06:38:58;2.63;;;2.42;;
75516;SDS011;64097;52.548;13.406;2023-07-20T06:41:24;2.58;;;2.05;;
75516;SDS011;64097;52.548;13.406;2023-07-20T06:43:50;3.45;;;2.33;;
75516;SDS011;64097;52.548;13.406;2023-07-20T06:46:15;2.40;;;2.20;;
75516;SDS011;64097;52.548;13.406;2023-07-20T06:48:41;2.80;;;2.25;;
75516;SDS011;64097;52.548;13.406;2023-07-20T06:51:07;2.80;;;1.85;;
75516;SDS011;64097;52.548;13.406;2023-07-20T06:53:32;1.67;;;1.58;;
75516;SDS011;64097;52.548;13.406;2023-07-20T06:55:58;1.70;;;1.60;;
75516;SDS011;64097;52.548;13.406;2023-07-20T06:58:24;2.13;;;1.80;;
75516;SDS011;64097;52.548;13.406;2023-07-20T07:00:50;1.92;;;1.58;;
75516;SDS011;64097;52.548;13.406;2023-07-20T07:03:15;1.83;;;1.40;;
75516;SDS011;64097;52.548;13.406;2023-07-20T07:05:41;1.42;;;1.20;;
75516;SDS011;64097;52.548;13.406;2023-07-20T07:08:08;2.13;;;1.50;;
75516;SDS011;64097;52.548;13.406;2023-07-20T07:10:34;2.03;;;1.20;;
75516;SDS011;64097;52.548;13.406;2023-07-20T07:13:01;1.10;;;1.00;;
75516;SDS011;64097;52.548;13.406;2023-07-20T07:15:27;2.88;;;1.13;;
75516;SDS011;64097;52.548;13.406;2023-07-20T07:17:53;2.28;;;1.02;;
75516;SDS011;64097;52.548;13.406;2023-07-20T07:20:19;1.65;;;0.82;;
75516;SDS011;64097;52.548;13.406;2023-07-20T07:22:45;1.15;;;0.85;;
75516;SDS011;64097;52.548;13.406;2023-07-20T07:25:11;1.13;;;0.93;;
75516;SDS011;64097;52.548;13.406;2023-07-20T07:27:37;1.73;;;0.90;;
75516;SDS011;64097;52.548;13.406;2023-07-20T07:30:03;1.48;;;1.00;;
75516;SDS011;64097;52.548;13.406;2023-07-20T07:32:30;1.20;;;0.88;;
75516;SDS011;64097;52.548;13.406;2023-07-20T07:34:56;1.00;;;0.80;;
75516;SDS011;64097;52.548;13.406;2023-07-20T07:37:23;1.02;;;0.90;;
75516;SDS011;64097;52.548;13.406;2023-07-20T07:39:49;1.20;;;0.70;;
75516;SDS011;64097;52.548;13.406;2023-07-20T07:42:14;0.80;;;0.80;;
75516;SDS011;64097;52.548;13.406;2023-07-20T07:44:40;1.85;;;0.80;;
75516;SDS011;64097;52.548;13.406;2023-07-20T07:47:06;1.13;;;0.70;;
75516;SDS011;64097;52.548;13.406;2023-07-20T07:49:32;0.90;;;0.60;;
75516;SDS011;64097;52.548;13.406;2023-07-20T07:51:58;1.42;;;0.52;;
75516;SDS011;64097;52.548;13.406;2023-07-20T07:54:23;0.63;;;0.63;;
75516;SDS011;64097;52.548;13.406;2023-07-20T07:56:50;0.70;;;0.60;;
75516;SDS011;64097;52.548;13.406;2023-07-20T07:59:16;1.17;;;0.70;;
75516;SDS011;64097;52.548;13.406;2023-07-20T08:01:42;0.70;;;0.65;;
75516;SDS011;64097;52.548;13.406;2023-07-20T08:04:07;1.95;;;0.65;;
75516;SDS011;64097;52.548;13.406;2023-07-20T08:06:33;0.63;;;0.50;;
75516;SDS011;64097;52.548;13.406;2023-07-20T08:08:59;1.42;;;1.00;;
75516;SDS011;64097;52.548;13.406;2023-07-20T08:11:25;1.23;;;0.60;;
75516;SDS011;64097;52.548;13.406;2023-07-20T08:13:51;0.70;;;0.57;;
75516;SDS011;64097;52.548;13.406;2023-07-20T08:16:17;0.60;;;0.55;;
75516;SDS011;64097;52.548;13.406;2023-07-20T08:18:44;1.55;;;0.70;;
75516;SDS011;64097;52.548;13.406;2023-07-20T08:21:10;1.45;;;0.70;;
75516;SDS011;64097;52.548;13.406;2023-07-20T08:23:36;0.68;;;0.57;;
75516;SDS011;64097;52.548;13.406;2023-07-20T08:26:02;1.17;;;0.70;;
75516;SDS011;64097;52.548;13.406;2023-07-20T08:28:28;0.98;;;0.80;;
75516;SDS011;64097;52.548;13.406;2023-07-20T08:30:54;0.50;;;0.50;;
75516;SDS011;64097;52.548;13.406;2023-07-20T08:33:20;0.50;;;0.43;;
75516;SDS011;64097;52.548;13.406;2023-07-20T08:35:45;1.27;;;0.50;;
75516;SDS011;64097;52.548;13.406;2023-07-20T08:38:12;2.05;;;0.40;;
75516;SDS011;64097;52.548;13.406;2023-07-20T08:40:39;0.77;;;0.40;;
75516;SDS011;64097;52.548;13.406;2023-07-20T08:43:06;0.40;;;0.40;;
75516;SDS011;64097;52.548;13.406;2023-07-20T08:45:35;1.58;;;0.40;;
75516;SDS011;64097;52.548;13.406;2023-07-20T08:48:03;0.45;;;0.40;;
75516;SDS011;64097;52.548;13.406;2023-07-20T08:50:31;0.73;;;0.40;;
75516;SDS011;64097;52.548;13.406;2023-07-20T08:52:58;0.50;;;0.32;;
75516;SDS011;64097;52.548;13.406;2023-07-20T08:55:26;0.52;;;0.40;;
75516;SDS011;64097;52.548;13.406;2023-07-20T08:57:56;0.35;;;0.30;;
75516;SDS011;64097;52.548;13.406;2023-07-20T09:00:25;0.90;;;0.40;;
75516;SDS011;64097;52.548;13.406;2023-07-20T09:02:53;1.35;;;0.50;;
75516;SDS011;64097;52.548;13.406;2023-07-20T09:05:19;0.40;;;0.40;;
75516;SDS011;64097;52.548;13.406;2023-07-20T09:07:46;0.50;;;0.32;;
75516;SDS011;64097;52.548;13.406;2023-07-20T09:10:11;0.93;;;0.40;;
75516;SDS011;64097;52.548;13.406;2023-07-20T09:12:42;0.68;;;0.50;;
75516;SDS011;64097;52.548;13.406;2023-07-20T09:15:09;0.70;;;0.50;;
75516;SDS011;64097;52.548;13.406;2023-07-20T09:17:36;0.40;;;0.40;;
75516;SDS011;64097;52.548;13.406;2023-07-20T09:20:05;1.05;;;0.40;;
75516;SDS011;64097;52.548;13.406;2023-07-20T09:22:36;1.05;;;0.50;;
75516;SDS011;64097;52.548;13.406;2023-07-20T09:25:13;0.70;;;0.50;;
75516;SDS011;64097;52.548;13.406;2023-07-20T09:27:44;2.13;;;0.40;;
75516;SDS011;64097;52.548;13.406;2023-07-20T09:30:11;0.65;;;0.45;;
75516;SDS011;64097;52.548;13.406;2023-07-20T09:32:46;1.25;;;0.50;;
75516;SDS011;64097;52.548;13.406;2023-07-20T09:35:13;1.83;;;0.60;;
75516;SDS011;64097;52.548;13.406;2023-07-20T09:37:40;0.73;;;0.30;;
75516;SDS011;64097;52.548;13.406;2023-07-20T09:40:14;1.60;;;0.47;;
75516;SDS011;64097;52.548;13.406;2023-07-20T09:42:41;2.25;;;0.40;;
75516;SDS011;64097;52.548;13.406;2023-07-20T09:45:07;0.93;;;0.40;;
75516;SDS011;64097;52.548;13.406;2023-07-20T09:47:35;1.17;;;0.40;;
75516;SDS011;64097;52.548;13.406;2023-07-20T09:50:06;1.58;;;0.50;;
75516;SDS011;64097;52.548;13.406;2023-07-20T09:52:40;0.82;;;0.45;;
75516;SDS011;64097;52.548;13.406;2023-07-20T09:55:09;0.70;;;0.50;;
75516;SDS011;64097;52.548;13.406;2023-07-20T09:57:36;1.65;;;0.45;;
75516;SDS011;64097;52.548;13.406;2023-07-20T10:00:06;2.65;;;0.55;;
75516;SDS011;64097;52.548;13.406;2023-07-20T10:02:43;2.22;;;0.50;;
75516;SDS011;64097;52.548;13.406;2023-07-20T10:05:10;0.93;;;0.50;;
75516;SDS011;64097;52.548;13.406;2023-07-20T10:07:40;0.70;;;0.60;;
75516;SDS011;64097;52.548;13.406;2023-07-20T10:10:14;1.00;;;0.75;;
75516;SDS011;64097;52.548;13.406;2023-07-20T10:12:42;1.63;;;0.63;;
75516;SDS011;64097;52.548;13.406;2023-07-20T10:20:48;0.55;;;0.50;;
75516;SDS011;64097;52.548;13.406;2023-07-20T10:23:16;0.73;;;0.50;;
75516;SDS011;64097;52.548;13.406;2023-07-20T10:25:42;0.40;;;0.40;;
75516;SDS011;64097;52.548;13.406;2023-07-20T10:28:08;1.42;;;0.50;;
75516;SDS011;64097;52.548;13.406;2023-07-20T10:30:36;0.88;;;0.40;;
75516;SDS011;64097;52.548;13.406;2023-07-20T10:33:02;0.70;;;0.40;;
75516;SDS011;64097;52.548;13.406;2023-07-20T10:35:29;0.55;;;0.40;;
75516;SDS011;64097;52.548;13.406;2023-07-20T10:38:04;0.90;;;0.60;;
75516;SDS011;64097;52.548;13.406;2023-07-20T10:40:30;0.50;;;0.40;;
75516;SDS011;64097;52.548;13.406;2023-07-20T10:43:03;0.50;;;0.40;;
75516;SDS011;64097;52.548;13.406;2023-07-20T10:48:04;1.02;;;0.50;;
75516;SDS011;64097;52.548;13.406;2023-07-20T10:50:32;0.70;;;0.45;;
75516;SDS011;64097;52.548;13.406;2023-07-20T10:55:39;2.28;;;0.60;;
75516;SDS011;64097;52.548;13.406;2023-07-20T10:58:09;0.60;;;0.50;;
75516;SDS011;64097;52.548;13.406;2023-07-20T11:03:30;3.42;;;0.65;;
75516;SDS011;64097;52.548;13.406;2023-07-20T11:06:50;0.82;;;0.55;;
75516;SDS011;64097;52.548;13.406;2023-07-20T11:11:30;1.40;;;0.60;;
75516;SDS011;64097;52.548;13.406;2023-07-20T11:16:40;1.23;;;0.45;;
75516;SDS011;64097;52.548;13.406;2023-07-20T11:19:13;0.80;;;0.40;;
75516;SDS011;64097;52.548;13.406;2023-07-20T11:21:53;0.80;;;0.50;;
75516;SDS011;64097;52.548;13.406;2023-07-20T11:24:20;0.40;;;0.40;;
75516;SDS011;64097;52.548;13.406;2023-07-20T11:26:47;1.70;;;0.40;;
75516;SDS011;64097;52.548;13.406;2023-07-20T11:29:18;1.60;;;0.40;;
75516;SDS011;64097;52.548;13.406;2023-07-20T11:31:46;0.70;;;0.50;;
75516;SDS011;64097;52.548;13.406;2023-07-20T11:34:13;1.80;;;0.52;;
75516;SDS011;64097;52.548;13.406;2023-07-20T11:36:43;1.00;;;0.50;;
75516;SDS011;64097;52.548;13.406;2023-07-20T11:39:11;0.70;;;0.50;;
75516;SDS011;64097;52.548;13.406;2023-07-20T11:41:46;0.95;;;0.60;;
75516;SDS011;64097;52.548;13.406;2023-07-20T11:44:19;0.70;;;0.60;;
75516;SDS011;64097;52.548;13.406;2023-07-20T11:46:53;0.50;;;0.40;;
75516;SDS011;64097;52.548;13.406;2023-07-20T11:49:36;0.47;;;0.30;;
75516;SDS011;64097;52.548;13.406;2023-07-20T11:52:04;2.30;;;0.50;;
75516;SDS011;64097;52.548;13.406;2023-07-20T11:54:32;0.50;;;0.50;;
75516;SDS011;64097;52.548;13.406;2023-07-20T11:57:02;0.52;;;0.40;;
75516;SDS011;64097;52.548;13.406;2023-07-20T11:59:28;0.60;;;0.40;;
75516;SDS011;64097;52.548;13.406;2023-07-20T12:01:53;1.10;;;0.40;;
75516;SDS011;64097;52.548;13.406;2023-07-20T12:04:20;0.43;;;0.30;;
75516;SDS011;64097;52.548;13.406;2023-07-20T12:06:48;0.82;;;0.50;;
75516;SDS011;64097;52.548;13.406;2023-07-20T12:09:14;0.80;;;0.40;;
75516;SDS011;64097;52.548;13.406;2023-07-20T12:11:42;0.60;;;0.47;;
75516;SDS011;64097;52.548;13.406;2023-07-20T12:14:09;1.98;;;0.57;;
75516;SDS011;64097;52.548;13.406;2023-07-20T12:16:36;0.77;;;0.30;;
75516;SDS011;64097;52.548;13.406;2023-07-20T12:19:07;0.45;;;0.40;;
75516;SDS011;64097;52.548;13.406;2023-07-20T12:21:34;0.68;;;0.50;;
75516;SDS011;64097;52.548;13.406;2023-07-20T12:24:05;0.30;;;0.30;;
75516;SDS011;64097;52.548;13.406;2023-07-20T12:26:32;0.40;;;0.40;;
75516;SDS011;64097;52.548;13.406;2023-07-20T12:28:59;0.70;;;0.32;;
75516;SDS011;64097;52.548;13.406;2023-07-20T12:31:25;0.63;;;0.50;;
75516;SDS011;64097;52.548;13.406;2023-07-20T12:33:52;1.02;;;0.40;;
75516;SDS011;64097;52.548;13.406;2023-07-20T12:36:20;0.77;;;0.40;;
75516;SDS011;64097;52.548;13.406;2023-07-20T12:38:46;0.43;;;0.40;;
75516;SDS011;64097;52.548;13.406;2023-07-20T12:41:12;1.60;;;0.40;;
75516;SDS011;64097;52.548;13.406;2023-07-20T12:43:38;1.13;;;0.40;;
75516;SDS011;64097;52.548;13.406;2023-07-20T12:46:07;0.40;;;0.40;;
75516;SDS011;64097;52.548;13.406;2023-07-20T12:48:34;0.40;;;0.40;;
75516;SDS011;64097;52.548;13.406;2023-07-20T12:51:02;0.43;;;0.40;;
75516;SDS011;64097;52.548;13.406;2023-07-20T12:53:28;0.50;;;0.40;;
75516;SDS011;64097;52.548;13.406;2023-07-20T12:55:54;1.27;;;0.30;;
75516;SDS011;64097;52.548;13.406;2023-07-20T12:58:20;0.60;;;0.30;;
75516;SDS011;64097;52.548;13.406;2023-07-20T13:00:46;0.93;;;0.30;;
75516;SDS011;64097;52.548;13.406;2023-07-20T13:03:11;0.60;;;0.40;;
75516;SDS011;64097;52.548;13.406;2023-07-20T13:05:37;1.33;;;0.57;;
75516;SDS011;64097;52.548;13.406;2023-07-20T13:08:03;0.77;;;0.45;;
75516;SDS011;64097;52.548;13.406;2023-07-20T13:10:30;1.45;;;0.45;;
75516;SDS011;64097;52.548;13.406;2023-07-20T13:12:56;0.65;;;0.40;;
75516;SDS011;64097;52.548;13.406;2023-07-20T13:15:24;1.77;;;0.50;;
75516;SDS011;64097;52.548;13.406;2023-07-20T13:20:21;1.00;;;0.40;;
75516;SDS011;64097;52.548;13.406;2023-07-20T13:22:47;0.82;;;0.40;;
75516;SDS011;64097;52.548;13.406;2023-07-20T13:25:13;0.30;;;0.30;;
75516;SDS011;64097;52.548;13.406;2023-07-20T13:27:39;0.47;;;0.30;;
75516;SDS011;64097;52.548;13.406;2023-07-20T13:30:05;0.73;;;0.30;;
75516;SDS011;64097;52.548;13.406;2023-07-20T13:32:33;0.63;;;0.40;;
75516;SDS011;64097;52.548;13.406;2023-07-20T13:34:59;0.82;;;0.38;;
75516;SDS011;64097;52.548;13.406;2023-07-20T13:37:25;1.50;;;0.30;;
75516;SDS011;64097;52.548;13.406;2023-07-20T13:39:52;0.57;;;0.30;;
75516;SDS011;64097;52.548;13.406;2023-07-20T13:42:17;0.30;;;0.30;;
75516;SDS011;64097;52.548;13.406;2023-07-20T13:44:43;0.40;;;0.32;;
75516;SDS011;64097;52.548;13.406;2023-07-20T13:47:09;0.70;;;0.40;;
75516;SDS011;64097;52.548;13.406;2023-07-20T13:49:34;0.75;;;0.50;;
75516;SDS011;64097;52.548;13.406;2023-07-20T13:52:00;0.47;;;0.30;;
75516;SDS011;64097;52.548;13.406;2023-07-20T13:54:26;1.13;;;0.35;;
75516;SDS011;64097;52.548;13.406;2023-07-20T13:56:51;0.90;;;0.40;;
75516;SDS011;64097;52.548;13.406;2023-07-20T13:59:17;1.70;;;0.45;;
